Wittenoom, Australia
Current Conditions -  °F | °C
As of 5:00 AM on Sunday 26 Oct 2014 (Local Time) from YPBO Reporting Station
Clear Clear  
Wind Chill: 66°   Ceiling: Unl
Heat Index: 66°   Visibility: 6mi
Dew Point: 34°   Wind: 3mph
Humidity: 30%   Direction: 80°E
Pressure: 30"   Gusts: NA
Location:  22.24°S, 118.34°E
Report Text: YPBO 252100Z AUTO 08003KT 9999 // NCD 19/01 Q1016
Loading
Personal Weather Stations






























Interactive Weather Map
Tropical Storm Tracking
New forecast layout! Learn more

10-Day Weather Forecast

Advertisements
Track Severe Weather on mobile